Vinton, IA

9:06 PM CDT on April 29, 2017 (GMT -0500)
Vinton-Veterans Memorial

Weather History for KVTI - May, 2013

Change the Weather History Date:

Friday, May 3, 2013

  Actual Average Record
Temperature  
Mean Temperature 34 °F -  
Max Temperature 37 °F 66 °F 91 °F (1949)
Min Temperature 32 °F 43 °F 31 °F (1967)
Degree Days  
Heating Degree Days 30    
Moisture  
Dew Point 32 °F    
Average Humidity 91    
Maximum Humidity 93    
Minimum Humidity 88    
Precipitation  
Precipitation 1.13 in - - ()
Sea Level Pressure  
Sea Level Pressure 30.09 in    
Wind  
Wind Speed 13 mph (North)    
Max Wind Speed 18 mph    
Max Gust Speed 24 mph    
Visibility 6 miles    
Events Rain , Snow    
Averages and records for this station are not official NWS values.
T = Trace of Precipitation, MM = Missing Value Source: NWS Daily Summary

Daily Weather History Graph

Daily Weather History Graph

Search for Another Location

Airport or City:

Trip Planner

Search our weather history database for the weather conditions in past years. The results will help you decide how hot, cold, wet, or windy it might be!

Date:

Astronomy

May. 03, 2013 Rise Set
Actual Time 6:00 AM CDT 8:09 PM CDT
Civil Twilight 5:29 AM CDT 8:40 PM CDT
Nautical Twilight 4:51 AM CDT 9:18 PM CDT
Astronomical Twilight 4:10 AM CDT 10:00 PM CDT
Moon 2:32 AM CDT (5/3) 1:58 PM CDT (5/3)
Length of Visible Light 15h 11m
Length of Day
14h 09m
Last Quarter, 37% of the Moon is Illuminated
May 3
Last Quarter
May 9
New
May 17
First Quarter
May 24
Full
May 31
Last Quarter

Hourly Weather History & Observations

Time (CDT) Temp. Windchill Dew Point Humidity Pressure Visibility Wind Dir Wind Speed Gust Speed Precip Events Conditions
12:15 AM 32.4 °F 23.0 °F 29.8 °F 90% 30.29 in 5.0 mi North 12.7 mph - N/A Snow Light Snow
12:35 AM 32.4 °F 22.5 °F 30.2 °F 92% 30.28 in 7.0 mi North 13.8 mph 23.0 mph 0.01 in   Overcast
12:55 AM 32.4 °F 21.3 °F 30.2 °F 92% 30.28 in 4.0 mi North 17.3 mph 21.9 mph 0.01 in   Overcast
1:15 AM 32.4 °F 21.7 °F 30.2 °F 92% 30.26 in 4.0 mi North 16.1 mph 21.9 mph N/A Snow Light Snow
1:35 AM 32.4 °F 21.7 °F 30.2 °F 92% 30.25 in 4.0 mi North 16.1 mph 24.2 mph 0.01 in Snow Light Snow
1:55 AM 32.4 °F 22.1 °F 30.2 °F 92% 30.24 in 5.0 mi North 15.0 mph 21.9 mph 0.01 in   Overcast
2:15 AM 32.4 °F 22.1 °F 30.2 °F 92% 30.22 in 7.0 mi North 15.0 mph 20.7 mph N/A   Overcast
2:35 AM 32.4 °F 21.7 °F 30.2 °F 92% 30.20 in 7.0 mi North 16.1 mph 23.0 mph N/A   Overcast
2:55 AM 32.4 °F 21.3 °F 29.8 °F 90% 30.20 in 10.0 mi North 17.3 mph 23.0 mph N/A   Overcast
3:15 AM 32.4 °F 21.3 °F 29.8 °F 90% 30.18 in 5.0 mi North 17.3 mph 21.9 mph N/A   Overcast
3:35 AM 32.4 °F 21.7 °F 29.8 °F 90% 30.18 in 7.0 mi North 16.1 mph 20.7 mph N/A   Overcast
3:55 AM 32.4 °F 22.5 °F 29.8 °F 90% 30.18 in 7.0 mi North 13.8 mph 21.9 mph N/A   Overcast
4:15 AM 32.4 °F 21.7 °F 29.7 °F 90% 30.18 in 7.0 mi North 16.1 mph 23.0 mph N/A   Overcast
4:35 AM 32.4 °F 22.1 °F 29.7 °F 90% 30.17 in 10.0 mi North 15.0 mph - N/A   Mostly Cloudy
4:55 AM 32.4 °F 22.5 °F 29.7 °F 90% 30.17 in 10.0 mi North 13.8 mph - N/A   Overcast
5:15 AM 32.4 °F 22.5 °F 29.7 °F 90% 30.16 in 10.0 mi North 13.8 mph 21.9 mph N/A   Mostly Cloudy
5:35 AM 32.4 °F 22.1 °F 29.5 °F 89% 30.16 in 10.0 mi North 15.0 mph - N/A   Overcast
5:55 AM 32.4 °F 22.1 °F 29.7 °F 90% 30.15 in 5.0 mi North 15.0 mph - N/A   Overcast
6:15 AM 32.4 °F 24.6 °F 29.8 °F 90% 30.16 in 4.0 mi North 9.2 mph 17.3 mph N/A   Overcast
6:35 AM 32.4 °F 24.6 °F 30.2 °F 92% 30.17 in 5.0 mi North 9.2 mph 16.1 mph N/A   Overcast
6:55 AM 32.4 °F 25.3 °F 30.2 °F 92% 30.16 in 4.0 mi North 8.1 mph - N/A   Overcast
7:15 AM 32.4 °F 25.3 °F 30.6 °F 93% 30.18 in 4.0 mi NNW 8.1 mph - N/A   Overcast
7:35 AM 32.4 °F 24.6 °F 30.6 °F 93% 30.18 in 2.5 mi North 9.2 mph - N/A Snow Light Snow
7:55 AM 32.4 °F 22.5 °F 30.6 °F 93% 30.16 in 2.5 mi North 13.8 mph - 0.02 in Snow Light Snow
8:15 AM 32.4 °F 22.1 °F 30.6 °F 93% 30.14 in 2.5 mi North 15.0 mph - 0.01 in   Overcast
8:35 AM 32.4 °F 21.3 °F 30.4 °F 92% 30.12 in 5.0 mi North 17.3 mph 21.9 mph 0.02 in   Overcast
8:55 AM 32.4 °F 21.3 °F 30.2 °F 92% 30.11 in 7.0 mi North 17.3 mph 23.0 mph 0.02 in   Overcast
9:15 AM 32.4 °F 20.9 °F 29.8 °F 90% 30.11 in 10.0 mi NNE 18.4 mph 23.0 mph N/A   Overcast
9:35 AM 32.4 °F 21.7 °F 29.7 °F 90% 30.11 in 5.0 mi North 16.1 mph 20.7 mph N/A   Overcast
9:55 AM 32.4 °F 22.5 °F 29.7 °F 90% 30.10 in 4.0 mi NNE 13.8 mph - 0.02 in Snow Snow
10:15 AM 32.4 °F 22.5 °F 29.7 °F 90% 30.10 in 3.0 mi North 13.8 mph 17.3 mph 0.03 in Rain Rain
10:35 AM 32.4 °F 23.5 °F 29.7 °F 90% 30.10 in 7.0 mi North 11.5 mph 17.3 mph 0.04 in Rain Light Rain
10:55 AM 32.4 °F 24.6 °F 29.7 °F 90% 30.10 in 4.0 mi North 9.2 mph - 0.05 in Rain Rain
11:15 AM 32.4 °F 22.1 °F 29.7 °F 90% 30.08 in 2.5 mi NNE 15.0 mph - 0.02 in Snow Light Snow
11:35 AM 32.4 °F 22.1 °F 29.7 °F 90% 30.08 in 5.0 mi NNE 15.0 mph - 0.03 in Rain Light Rain
11:55 AM 32.4 °F 22.1 °F 29.7 °F 90% 30.07 in 4.0 mi North 15.0 mph - 0.04 in Rain Light Rain
12:15 PM 33.3 °F 24.6 °F 30.7 °F 90% 30.08 in 4.0 mi NNE 11.5 mph - 0.02 in Rain Rain
12:35 PM 34.7 °F 27.5 °F 32.0 °F 90% 30.08 in 4.0 mi NNE 9.2 mph - 0.04 in Rain Rain
12:55 PM 34.5 °F 28.6 °F 31.6 °F 89% 30.08 in 4.0 mi North 6.9 mph - 0.05 in Rain Rain
1:15 PM 34.9 °F 27.1 °F 32.0 °F 89% 30.06 in 3.0 mi North 10.4 mph - 0.02 in Rain Rain
1:35 PM 34.9 °F 26.2 °F 32.0 °F 89% 30.05 in 7.0 mi North 12.7 mph - 0.03 in Rain Light Rain
1:55 PM 34.9 °F 27.1 °F 32.0 °F 89% 30.05 in 5.0 mi North 10.4 mph - 0.04 in Rain Rain
2:15 PM 34.9 °F 26.2 °F 32.0 °F 89% 30.03 in 10.0 mi North 12.7 mph - N/A Rain Light Rain
2:35 PM 34.9 °F 26.6 °F 32.0 °F 89% 30.04 in 7.0 mi NNE 11.5 mph - 0.01 in Rain Light Rain
2:55 PM 34.9 °F 26.2 °F 32.0 °F 89% 30.04 in 5.0 mi NNE 12.7 mph 17.3 mph 0.01 in Rain Light Rain
3:15 PM 34.9 °F 29.0 °F 32.0 °F 89% 30.04 in 4.0 mi NNE 6.9 mph - 0.01 in Rain Rain
3:35 PM 35.4 °F 26.0 °F 32.2 °F 88% 30.01 in 7.0 mi NNE 15.0 mph 18.4 mph 0.02 in Rain Light Rain
3:55 PM 35.1 °F 27.4 °F 32.0 °F 89% 30.03 in 10.0 mi North 10.4 mph - 0.03 in Rain Light Rain
4:15 PM 35.2 °F 27.1 °F 32.2 °F 89% 30.01 in 10.0 mi North 11.5 mph 17.3 mph N/A Rain Rain
4:35 PM 35.6 °F 25.9 °F 32.4 °F 88% 29.99 in 10.0 mi North 16.1 mph - N/A   Drizzle
4:55 PM 35.6 °F 27.5 °F 32.4 °F 88% 29.99 in 10.0 mi North 11.5 mph 19.6 mph N/A   Drizzle
5:15 PM 37.2 °F 28.3 °F 34.0 °F 88% 29.99 in 10.0 mi NNE 15.0 mph 19.6 mph N/A Rain Light Rain
5:35 PM 37.4 °F 30.8 °F 34.2 °F 88% 30.01 in 10.0 mi NNE 9.2 mph - N/A Rain Rain
5:55 PM 37.4 °F 30.8 °F 34.3 °F 89% 30.01 in 10.0 mi North 9.2 mph - N/A Rain Rain
6:15 PM 37.4 °F 29.3 °F 34.3 °F 89% 29.99 in 10.0 mi North 12.7 mph - N/A   Light Drizzle
6:35 PM 37.4 °F 29.8 °F 34.7 °F 90% 29.99 in 5.0 mi North 11.5 mph - N/A Rain Light Rain
6:55 PM 37.4 °F 29.3 °F 34.7 °F 90% 29.99 in 7.0 mi North 12.7 mph - N/A Rain Rain
7:15 PM 37.4 °F 28.9 °F 34.7 °F 90% 29.98 in 10.0 mi North 13.8 mph 18.4 mph 0.01 in Rain Light Rain
7:35 PM 37.4 °F 29.8 °F 34.7 °F 90% 29.99 in 10.0 mi NNE 11.5 mph 18.4 mph 0.01 in   Drizzle
7:55 PM 37.4 °F 29.8 °F 34.7 °F 90% 29.99 in 10.0 mi North 11.5 mph - 0.01 in Rain Light Rain
8:15 PM 37.4 °F 30.3 °F 34.9 °F 91% 29.99 in 10.0 mi North 10.4 mph - N/A Rain Light Rain
8:35 PM 37.4 °F 30.8 °F 34.9 °F 91% 29.99 in 7.0 mi North 9.2 mph - 0.01 in Rain Rain
8:55 PM 37.4 °F 29.8 °F 35.1 °F 91% 29.98 in 7.0 mi North 11.5 mph - 0.02 in Rain Rain
9:15 PM 37.4 °F 30.3 °F 35.1 °F 91% 29.99 in 10.0 mi North 10.4 mph 16.1 mph 0.01 in Rain Light Rain
9:35 PM 37.4 °F 30.8 °F 35.1 °F 91% 29.99 in 5.0 mi North 9.2 mph - 0.04 in Rain Light Rain
9:55 PM 37.4 °F 28.9 °F 35.2 °F 92% 29.97 in 4.0 mi North 13.8 mph - 0.07 in Rain Rain
10:15 PM 37.4 °F 31.4 °F 35.6 °F 93% 30.01 in 5.0 mi NNE 8.1 mph - 0.05 in Rain Heavy Rain
10:35 PM 37.4 °F 29.8 °F 35.6 °F 93% 29.97 in 3.0 mi North 11.5 mph - 0.19 in Rain Rain
10:55 PM 37.4 °F 29.8 °F 35.6 °F 93% 29.97 in 2.0 mi North 11.5 mph - 0.28 in Rain Light Rain
11:15 PM 37.4 °F 28.2 °F 35.6 °F 93% 29.96 in 0.8 mi North 16.1 mph 20.7 mph 0.38 in Snow Snow
11:35 PM 37.4 °F 30.8 °F 35.6 °F 93% 29.97 in 3.0 mi NNW 9.2 mph - 0.44 in Rain Light Rain
11:55 PM 37.4 °F 29.8 °F 35.6 °F 93% 29.95 in 10.0 mi North 11.5 mph - 0.45 in Rain Light Rain